Flight Track Log - Related Links

Times and Time Zones

All times are in EDT time to prevent confusion due to time zone crossing. See the RPA3247 flight status page for this flight to view local times or setup timezone preferences in your user account.

Time Position Orientation Groundspeed Altitude Reporting Facility
EDT Latitude Longitude Course Direction KTS MPH feet Rate Location/Type
Thu 05:29:19 PM 42.7714 -73.8092 135° Southeast 153 176 1,300  Level Boston Center
Thu 05:30:13 PM 42.8150 -73.8356 336° Northwest 212 244 2,700 1,985 Climbing Boston Center
Thu 05:31:00 PM 42.5323 -73.9945 171° South  Level Estimated
Thu 05:31:32 PM 42.8869 -73.9022 326° Northwest 241 277 5,700  Level Boston Center
Thu 05:32:00 PM 42.4816 -73.8997 126° Southeast  Level FlightAware Approximate
Thu 05:32:32 PM 42.9447 -73.9575 325° Northwest 269 310 8,200  Level Boston Center
Thu 05:33:00 PM 42.4103 -73.9656 170° South  Level Estimated
Thu 05:33:32 PM 42.9828 -74.0606 297° West 275 316 10,700  Level Boston Center
Thu 05:34:00 PM 42.3491 -73.8831 135° Southeast  Level FlightAware Approximate
Thu 05:34:32 PM 42.9689 -74.1681 260° West 292 336 12,100  Level Boston Center
Thu 05:35:32 PM 42.8689 -74.1653 179° South 239 275 14,500 2,050 Climbing Boston Center
Thu 05:36:32 PM 42.7861 -74.1233 160° South 292 336 16,200 1,700 Climbing Boston Center
Thu 05:37:32 PM 42.6825 -74.0725 160° South 346 398 17,900 1,600 Climbing Boston Center
Thu 05:38:32 PM 42.5853 -74.0192 158° South 365 420 19,400 1,400 Climbing Boston Center
Thu 05:39:32 PM 42.4861 -73.9689 159° South 376 433 20,700 1,350 Climbing Boston Center
Thu 05:40:32 PM 42.3806 -73.9128 159° South 389 448 22,100 1,350 Climbing Boston Center
Thu 05:41:32 PM 42.2728 -73.8597 160° South 399 459 23,400 1,250 Climbing Boston Center
Thu 05:42:32 PM 42.1650 -73.8069 160° South 411 473 24,600 1,100 Climbing Boston Center
Thu 05:43:32 PM 42.0481 -73.8269 187° South 406 467 25,600 1,050 Climbing Boston Center
Thu 05:44:32 PM 41.9347 -73.8800 199° South 412 474 26,700 1,100 Climbing Boston Center
Thu 05:45:32 PM 41.8194 -73.9361 200° South 420 483 27,800 402 Climbing Boston Center
Thu 05:47:46 PM 41.5764 -74.0433 198° South 438 504 28,000 62 Climbing New York Center
Thu 05:48:47 PM 41.4583 -74.0983 199° South 438 504 28,000  Level New York Center
Thu 05:49:45 PM 41.3422 -74.1533 200° South 438 504 28,000  Level New York Center
Thu 05:50:46 PM 41.2094 -74.2047 196° South 438 504 28,000  Level New York Center
Thu 05:51:46 PM 41.0956 -74.2594 200° South 448 516 28,000  Level New York Center
Thu 05:52:45 PM 40.9814 -74.3139 200° South 448 516 28,000  Level New York Center
Thu 05:53:45 PM 40.8653 -74.3656 199° South 448 516 28,000  Level New York Center
Thu 05:54:46 PM 40.7608 -74.4450 210° Southwest 431 496 28,000  Level New York Center
Thu 05:55:47 PM 40.6881 -74.5642 231° Southwest 422 486 28,000 -252 Level New York Center
Thu 05:56:45 PM 40.6175 -74.6861 233° Southwest 422 486 27,500 -763 Descending New York Center
Thu 05:57:45 PM 40.5406 -74.8019 229° Southwest 427 491 26,500 -1,000 Descending New York Center
Thu 05:58:45 PM 40.4619 -74.9117 227° Southwest 427 491 25,500 -992 Descending New York Center
Thu 05:59:46 PM 40.3850 -75.0244 228° Southwest 422 486 24,500 -992 Descending New York Center
Thu 06:00:46 PM 40.3058 -75.1339 227° Southwest 422 486 23,500 -1,008 Descending New York Center
Thu 06:01:45 PM 40.2331 -75.2406 228° Southwest 415 478 22,500 -750 Descending New York Center
Thu 06:02:46 PM 40.1561 -75.3472 227° Southwest 409 471 22,000 -248 Descending New York Center
Thu 06:03:46 PM 40.0811 -75.4481 226° Southwest 404 465 22,000  Level New York Center
Thu 06:04:47 PM 40.0150 -75.5439 228° Southwest 404 465 22,000  Level New York Center
Thu 06:05:45 PM 39.9397 -75.6469 226° Southwest 404 465 22,000  Level New York Center
Thu 06:06:46 PM 39.8767 -75.7589 234° Southwest 399 459 22,000  Level New York Center
Thu 06:07:47 PM 39.8133 -75.8761 235° Southwest 399 459 22,000 -793 Level New York Center
Thu 06:08:47 PM 39.7497 -75.9956 235° Southwest 399 459 20,400 -1,831 Descending New York Center
Thu 06:09:45 PM 39.6947 -76.1050 237° Southwest 394 453 18,400 -1,932 Descending New York Center
Thu 06:10:45 PM 39.6311 -76.2214 235° Southwest 374 430 16,600 -2,077 Descending New York Center
Thu 06:11:03 PM 39.6167 -76.2500 237° Southwest 365 420 15,700 -2,167 Descending Potomac TRACON
Thu 06:11:57 PM 39.5500 -76.3333 224° Southwest 355 409 14,000 -1,800 Descending Potomac TRACON
Thu 06:13:03 PM 39.4667 -76.4167 218° Southwest 345 397 12,100 -952 Descending Potomac TRACON
Thu 06:14:03 PM 39.3833 -76.4833 212° Southwest 340 391 12,000 -50 Descending Potomac TRACON
Thu 06:15:03 PM 39.3000 -76.5500 212° Southwest 340 391 12,000  Level Potomac TRACON
Thu 06:16:03 PM 39.2333 -76.6167 218° Southwest 323 372 12,000 -850 Level Potomac TRACON
Thu 06:17:03 PM 39.1500 -76.6833 212° Southwest 308 354 10,300 -992 Descending Potomac TRACON
Thu 06:18:04 PM 39.1000 -76.7500 226° Southwest 290 334 10,000 -524 Descending Potomac TRACON
Thu 06:19:09 PM 39.0333 -76.8167 218° Southwest 250 288 9,200 -952 Descending Potomac TRACON
Thu 06:20:10 PM 38.9833 -76.8833 226° Southwest 242 278 8,000 -1,240 Descending Potomac TRACON
Thu 06:21:10 PM 38.9667 -76.9667 256° West 242 278 6,700 -1,053 Descending Potomac TRACON
Thu 06:22:04 PM 38.9833 -77.0333 288° West 242 278 6,000 -500 Descending Potomac TRACON
Thu 06:23:10 PM 39.0333 -77.0833 322° Northwest 189 217 5,700 -700 Descending Potomac TRACON
Thu 06:24:04 PM 39.0500 -77.1333 293° West 193 222 4,600 -1,158 Descending Potomac TRACON
Thu 06:25:04 PM 39.0333 -77.1833 247° West 185 213 3,500 -800 Descending Potomac TRACON
Thu 06:26:04 PM 39.0000 -77.1667 159° South 170 196 3,000 -650 Descending Potomac TRACON
Thu 06:27:04 PM 38.9500 -77.1333 153° Southeast 171 197 2,200 -800 Descending Potomac TRACON
Thu 06:28:04 PM 38.9167 -77.1000 142° Southeast 161 185 1,400 -800 Descending Potomac TRACON

Login

Don't have an account? Register now (free) for customized features, flight alerts, and more!